createdAt,value
2023-03-03T00:01:03.632Z,97137.00
2023-03-03T00:03:30.695Z,97140.00
2023-03-03T00:05:58.188Z,97137.00
2023-03-03T00:08:25.459Z,97143.00
2023-03-03T00:10:52.877Z,97137.00
2023-03-03T00:13:23.986Z,97142.00
2023-03-03T00:15:52.289Z,97135.00
2023-03-03T00:18:33.804Z,97142.00
2023-03-03T00:21:02.769Z,97133.00
2023-03-03T00:23:39.375Z,97139.00
2023-03-03T00:26:38.593Z,97142.00
2023-03-03T00:29:29.174Z,97136.00
2023-03-03T00:32:16.526Z,97132.00
2023-03-03T00:34:44.902Z,97132.00
2023-03-03T00:37:35.478Z,97130.00
2023-03-03T00:40:24.107Z,97130.00
2023-03-03T00:42:58.333Z,97135.00
2023-03-03T00:45:48.917Z,97132.00
2023-03-03T00:48:28.261Z,97129.00
2023-03-03T00:51:01.635Z,97140.00
2023-03-03T00:53:30.868Z,97133.00
2023-03-03T00:55:58.119Z,97126.00
2023-03-03T00:58:25.396Z,97123.00
2023-03-03T01:00:54.658Z,97124.00
2023-03-03T01:03:25.000Z,97114.00
2023-03-03T01:05:53.563Z,97120.00
2023-03-03T01:08:22.165Z,97126.00
2023-03-03T01:10:52.256Z,97114.00
2023-03-03T01:13:23.572Z,97124.00
2023-03-03T01:15:51.111Z,97107.00
2023-03-03T01:18:18.081Z,97116.00
2023-03-03T01:20:44.931Z,97104.00
2023-03-03T01:23:11.899Z,97108.00
2023-03-03T01:25:39.391Z,97099.00
2023-03-03T01:28:06.218Z,97109.00
2023-03-03T01:30:33.150Z,97097.00
2023-03-03T01:33:00.154Z,97112.00
2023-03-03T01:35:27.659Z,97115.00
2023-03-03T01:37:54.433Z,97103.00
2023-03-03T01:40:26.650Z,97101.00
2023-03-03T01:42:53.919Z,97101.00
2023-03-03T01:45:27.309Z,97096.00
2023-03-03T01:48:23.373Z,97104.00
2023-03-03T01:51:06.621Z,97103.00
2023-03-03T01:53:43.460Z,97087.00
2023-03-03T01:56:11.122Z,97093.00
2023-03-03T01:58:43.826Z,97101.00
2023-03-03T02:01:19.483Z,97093.00
2023-03-03T02:03:46.722Z,97098.00
2023-03-03T02:06:22.872Z,97107.00
2023-03-03T02:09:06.543Z,97108.00
2023-03-03T02:11:36.957Z,97113.00
2023-03-03T02:14:04.097Z,97099.00
2023-03-03T02:16:31.110Z,97097.00
2023-03-03T02:18:58.033Z,97096.00
2023-03-03T02:21:28.349Z,97098.00
2023-03-03T02:24:18.504Z,97097.00
2023-03-03T02:26:46.347Z,97109.00
2023-03-03T02:29:13.122Z,97105.00
2023-03-03T02:31:40.310Z,97105.00
2023-03-03T02:34:07.467Z,97097.00
2023-03-03T02:36:38.587Z,97098.00
2023-03-03T02:39:14.604Z,97098.00
2023-03-03T02:42:08.257Z,97102.00
2023-03-03T02:44:35.714Z,97090.00
2023-03-03T02:47:02.475Z,97096.00
2023-03-03T02:49:32.551Z,97106.00
2023-03-03T02:52:02.031Z,97098.00
2023-03-03T02:54:33.574Z,97100.00
2023-03-03T02:57:01.008Z,97098.00
2023-03-03T02:59:28.658Z,97091.00
2023-03-03T03:01:56.001Z,97102.00
2023-03-03T03:04:26.964Z,97089.00
2023-03-03T03:06:55.001Z,97094.00
2023-03-03T03:09:24.830Z,97094.00
2023-03-03T03:11:52.131Z,97096.00
2023-03-03T03:14:18.901Z,97093.00
2023-03-03T03:16:45.929Z,97088.00
2023-03-03T03:19:12.967Z,97085.00
2023-03-03T03:21:39.780Z,97088.00
2023-03-03T03:24:06.929Z,97086.00
2023-03-03T03:26:33.725Z,97089.00
2023-03-03T03:29:00.595Z,97093.00
2023-03-03T03:31:27.623Z,97098.00
2023-03-03T03:33:54.440Z,97094.00
2023-03-03T03:36:21.339Z,97097.00
2023-03-03T03:38:48.136Z,97088.00
2023-03-03T03:41:14.995Z,97092.00
2023-03-03T03:43:41.794Z,97100.00
2023-03-03T03:46:09.018Z,97098.00
2023-03-03T03:48:36.104Z,97094.00
2023-03-03T03:51:03.235Z,97100.00
2023-03-03T03:53:30.329Z,97093.00
2023-03-03T03:55:57.422Z,97098.00
2023-03-03T03:58:24.268Z,97090.00
2023-03-03T04:00:51.107Z,97106.00
2023-03-03T04:03:18.017Z,97097.00
2023-03-03T04:05:44.899Z,97110.00
2023-03-03T04:08:12.281Z,97109.00
2023-03-03T04:10:39.250Z,97109.00
2023-03-03T04:13:06.358Z,97104.00
2023-03-03T04:15:33.198Z,97104.00
2023-03-03T04:18:00.136Z,97109.00
2023-03-03T04:20:27.000Z,97115.00
2023-03-03T04:22:53.797Z,97113.00
2023-03-03T04:25:20.653Z,97108.00
2023-03-03T04:27:47.548Z,97105.00
2023-03-03T04:30:16.144Z,97106.00
2023-03-03T04:32:42.987Z,97110.00
2023-03-03T04:35:10.854Z,97119.00
2023-03-03T04:37:38.869Z,97124.00
2023-03-03T04:40:07.751Z,97115.00
2023-03-03T04:42:35.297Z,97114.00
2023-03-03T04:45:02.514Z,97118.00
2023-03-03T04:47:29.325Z,97113.00
2023-03-03T04:49:56.083Z,97126.00
2023-03-03T04:52:22.897Z,97127.00
2023-03-03T04:54:49.676Z,97120.00
2023-03-03T04:57:16.464Z,97113.00
2023-03-03T04:59:43.398Z,97122.00
2023-03-03T05:02:10.249Z,97128.00
2023-03-03T05:04:39.959Z,97129.00
2023-03-03T05:07:07.347Z,97135.00
2023-03-03T05:09:34.260Z,97124.00
2023-03-03T05:12:01.284Z,97124.00
2023-03-03T05:14:28.240Z,97125.00
2023-03-03T05:16:55.299Z,97129.00
2023-03-03T05:19:22.084Z,97128.00
2023-03-03T05:21:48.899Z,97129.00
2023-03-03T05:24:15.854Z,97141.00
2023-03-03T05:26:42.764Z,97137.00
2023-03-03T05:29:10.034Z,97134.00
2023-03-03T05:31:37.035Z,97136.00
2023-03-03T05:34:03.970Z,97124.00
2023-03-03T05:36:30.815Z,97128.00
2023-03-03T05:38:57.640Z,97127.00
2023-03-03T05:41:24.576Z,97141.00
2023-03-03T05:43:51.750Z,97134.00
2023-03-03T05:46:19.040Z,97139.00
2023-03-03T05:48:46.177Z,97143.00
2023-03-03T05:51:13.118Z,97147.00
2023-03-03T05:53:40.160Z,97148.00
2023-03-03T05:56:07.558Z,97145.00
2023-03-03T05:58:34.337Z,97142.00
2023-03-03T06:01:01.887Z,97144.00
2023-03-03T06:03:29.006Z,97150.00
2023-03-03T06:05:55.898Z,97156.00
2023-03-03T06:08:22.921Z,97158.00
2023-03-03T06:10:49.720Z,97168.00
2023-03-03T06:13:16.778Z,97164.00
2023-03-03T06:15:44.075Z,97159.00
2023-03-03T06:18:10.907Z,97162.00
2023-03-03T06:20:38.657Z,97161.00
2023-03-03T06:23:06.287Z,97177.00
2023-03-03T06:25:36.677Z,97179.00
2023-03-03T06:28:03.963Z,97181.00
2023-03-03T06:30:30.895Z,97188.00
2023-03-03T06:32:57.926Z,97181.00
2023-03-03T06:35:24.932Z,97183.00
2023-03-03T06:37:51.920Z,97194.00
2023-03-03T06:40:18.879Z,97191.00
2023-03-03T06:42:46.000Z,97197.00
2023-03-03T06:45:13.316Z,97201.00
2023-03-03T06:47:40.616Z,97200.00
2023-03-03T06:50:10.197Z,97209.00
2023-03-03T06:52:37.022Z,97205.00
2023-03-03T06:55:21.820Z,97206.00
2023-03-03T06:57:48.757Z,97203.00
2023-03-03T07:00:24.594Z,97208.00
2023-03-03T07:03:06.077Z,97197.00
2023-03-03T07:05:34.359Z,97200.00
2023-03-03T07:08:01.871Z,97217.00
2023-03-03T07:10:30.946Z,97208.00
2023-03-03T07:13:21.981Z,97214.00
2023-03-03T07:15:51.827Z,97210.00
2023-03-03T07:18:57.986Z,97214.00
2023-03-03T07:21:36.579Z,97213.00
2023-03-03T07:24:20.133Z,97219.00
2023-03-03T07:26:46.943Z,97206.00
2023-03-03T07:29:24.955Z,97223.00
2023-03-03T07:31:53.612Z,97225.00
2023-03-03T07:34:40.051Z,97226.00
2023-03-03T07:37:36.486Z,97230.00
2023-03-03T07:40:38.133Z,97229.00
2023-03-03T07:44:17.850Z,97222.00
2023-03-03T07:46:48.239Z,97227.00
2023-03-03T07:49:37.000Z,97230.00
2023-03-03T07:52:32.007Z,97234.00
2023-03-03T07:55:03.825Z,97243.00
2023-03-03T07:57:39.766Z,97257.00
2023-03-03T08:00:19.463Z,97261.00
2023-03-03T08:03:00.342Z,97265.00
2023-03-03T08:05:45.218Z,97266.00
2023-03-03T08:08:32.442Z,97284.00
2023-03-03T08:11:02.319Z,97282.00
2023-03-03T08:13:36.557Z,97286.00
2023-03-03T08:16:39.212Z,97287.00
2023-03-03T08:19:07.133Z,97302.00
2023-03-03T08:21:36.983Z,97308.00
2023-03-03T08:24:05.974Z,97308.00
2023-03-03T08:26:32.922Z,97305.00
2023-03-03T08:29:01.783Z,97306.00
2023-03-03T08:31:40.820Z,97305.00
2023-03-03T08:34:10.789Z,97313.00
2023-03-03T08:36:37.666Z,97309.00
2023-03-03T08:39:10.318Z,97311.00
2023-03-03T08:41:39.197Z,97316.00
2023-03-03T08:44:06.485Z,97317.00
2023-03-03T08:46:34.230Z,97313.00
2023-03-03T08:49:01.146Z,97314.00
2023-03-03T08:51:30.121Z,97314.00
2023-03-03T08:53:57.543Z,97319.00
2023-03-03T08:56:25.644Z,97306.00
2023-03-03T08:59:02.198Z,97320.00
2023-03-03T09:01:31.441Z,97309.00
2023-03-03T09:03:58.492Z,97308.00
2023-03-03T09:06:25.499Z,97294.00
2023-03-03T09:08:54.456Z,97307.00
2023-03-03T09:11:28.453Z,97302.00
2023-03-03T09:14:29.834Z,97290.00
2023-03-03T09:16:57.635Z,97294.00
2023-03-03T09:19:37.259Z,97290.00
2023-03-03T09:22:26.404Z,97307.00
2023-03-03T09:25:00.256Z,97299.00
2023-03-03T09:27:35.618Z,97295.00
2023-03-03T09:30:34.894Z,97305.00
2023-03-03T09:33:17.469Z,97306.00
2023-03-03T09:35:45.627Z,97306.00
2023-03-03T09:38:31.901Z,97311.00
2023-03-03T09:41:38.038Z,97304.00
2023-03-03T09:44:19.314Z,97311.00
2023-03-03T09:47:36.932Z,97314.00
2023-03-03T09:50:34.000Z,97302.00
2023-03-03T09:53:15.704Z,97305.00
2023-03-03T09:56:08.564Z,97297.00
2023-03-03T09:59:21.323Z,97308.00
2023-03-03T10:02:18.745Z,97309.00
2023-03-03T10:05:27.593Z,97308.00
2023-03-03T10:08:37.885Z,97294.00
2023-03-03T10:11:30.095Z,97285.00
2023-03-03T10:14:23.850Z,97287.00
2023-03-03T10:17:19.315Z,97284.00
2023-03-03T10:20:08.840Z,97289.00
2023-03-03T10:22:57.321Z,97293.00
2023-03-03T10:25:42.950Z,97290.00
2023-03-03T10:28:54.569Z,97302.00
2023-03-03T10:32:07.428Z,97305.00
2023-03-03T10:35:00.385Z,97307.00
2023-03-03T10:38:05.706Z,97305.00
2023-03-03T10:41:17.810Z,97301.00
2023-03-03T10:44:32.486Z,97307.00
2023-03-03T10:47:38.982Z,97311.00
2023-03-03T10:50:51.662Z,97321.00
2023-03-03T10:53:34.370Z,97319.00
2023-03-03T10:56:26.061Z,97309.00
2023-03-03T10:59:27.969Z,97301.00
2023-03-03T11:02:06.884Z,97298.00
2023-03-03T11:05:03.235Z,97304.00
2023-03-03T11:07:56.087Z,97298.00
2023-03-03T11:10:41.046Z,97302.00
2023-03-03T11:13:53.973Z,97308.00
2023-03-03T11:16:55.431Z,97305.00
2023-03-03T11:19:47.298Z,97312.00
2023-03-03T11:22:34.324Z,97304.00
2023-03-03T11:25:20.408Z,97302.00
2023-03-03T11:28:14.601Z,97300.00
2023-03-03T11:31:06.771Z,97307.00
2023-03-03T11:33:46.707Z,97310.00
2023-03-03T11:36:18.693Z,97301.00
2023-03-03T11:38:58.111Z,97306.00
2023-03-03T11:41:49.380Z,97303.00
2023-03-03T11:44:30.148Z,97307.00
2023-03-03T11:47:05.442Z,97298.00
2023-03-03T11:49:41.047Z,97290.00
2023-03-03T11:52:42.197Z,97287.00
2023-03-03T11:55:23.618Z,97290.00
2023-03-03T11:58:31.057Z,97285.00
2023-03-03T12:01:39.957Z,97286.00
2023-03-03T12:04:23.361Z,97280.00
2023-03-03T12:07:24.335Z,97278.00
2023-03-03T12:10:21.637Z,97272.00
2023-03-03T12:13:03.125Z,97270.00
2023-03-03T12:15:39.861Z,97271.00
2023-03-03T12:18:40.418Z,97266.00
2023-03-03T12:22:14.251Z,97264.00
2023-03-03T12:24:59.132Z,97247.00
2023-03-03T12:27:58.837Z,97239.00
2023-03-03T12:31:09.021Z,97244.00
2023-03-03T12:33:58.043Z,97236.00
2023-03-03T12:37:12.792Z,97219.00
2023-03-03T12:39:59.132Z,97225.00
2023-03-03T12:42:42.308Z,97219.00
2023-03-03T12:45:37.025Z,97224.00
2023-03-03T12:48:16.574Z,97215.00
2023-03-03T12:50:56.087Z,97212.00
2023-03-03T12:53:40.958Z,97215.00
2023-03-03T12:56:14.214Z,97214.00
2023-03-03T12:59:04.677Z,97211.00
2023-03-03T13:02:25.782Z,97204.00
2023-03-03T13:05:40.713Z,97215.00
2023-03-03T13:08:47.146Z,97207.00
2023-03-03T13:11:33.568Z,97218.00
2023-03-03T13:14:32.627Z,97214.00
2023-03-03T13:17:19.658Z,97209.00
2023-03-03T13:20:00.425Z,97210.00
2023-03-03T13:22:38.782Z,97215.00
2023-03-03T13:25:20.116Z,97206.00
2023-03-03T13:27:51.669Z,97214.00
2023-03-03T13:30:31.809Z,97212.00
2023-03-03T13:33:28.791Z,97214.00
2023-03-03T13:36:02.376Z,97218.00
2023-03-03T13:38:42.088Z,97219.00
2023-03-03T13:41:31.939Z,97221.00
2023-03-03T13:44:42.340Z,97210.00
2023-03-03T13:47:42.557Z,97208.00
2023-03-03T13:50:29.630Z,97205.00
2023-03-03T13:53:18.270Z,97217.00
2023-03-03T13:56:13.155Z,97212.00
2023-03-03T13:59:02.199Z,97210.00
2023-03-03T14:01:51.091Z,97201.00
2023-03-03T14:04:48.592Z,97190.00
2023-03-03T14:07:29.883Z,97194.00
2023-03-03T14:10:02.864Z,97188.00
2023-03-03T14:13:08.948Z,97184.00
2023-03-03T14:16:19.277Z,97183.00
2023-03-03T14:18:57.555Z,97184.00
2023-03-03T14:21:39.030Z,97176.00
2023-03-03T14:24:25.158Z,97180.00
2023-03-03T14:27:00.624Z,97171.00
2023-03-03T14:29:27.416Z,97183.00
2023-03-03T14:32:01.558Z,97183.00
2023-03-03T14:34:42.025Z,97173.00
2023-03-03T14:37:24.909Z,97182.00
2023-03-03T14:40:21.909Z,97178.00
2023-03-03T14:42:51.889Z,97179.00
2023-03-03T14:45:36.557Z,97180.00
2023-03-03T14:48:18.615Z,97176.00
2023-03-03T14:51:15.291Z,97169.00
2023-03-03T14:53:48.152Z,97159.00
2023-03-03T14:56:31.057Z,97168.00
2023-03-03T14:59:20.887Z,97156.00
2023-03-03T15:01:48.236Z,97170.00
2023-03-03T15:04:15.180Z,97170.00
2023-03-03T15:06:49.695Z,97174.00
2023-03-03T15:09:43.388Z,97171.00
2023-03-03T15:12:38.544Z,97170.00
2023-03-03T15:15:05.581Z,97166.00
2023-03-03T15:18:01.189Z,97174.00
2023-03-03T15:21:16.468Z,97169.00
2023-03-03T15:24:07.453Z,97167.00
2023-03-03T15:27:13.218Z,97169.00
2023-03-03T15:29:58.149Z,97162.00
2023-03-03T15:32:55.322Z,97174.00
2023-03-03T15:35:28.106Z,97167.00
2023-03-03T15:38:18.698Z,97170.00
2023-03-03T15:40:50.548Z,97172.00
2023-03-03T15:43:50.048Z,97170.00
2023-03-03T15:46:53.119Z,97161.00
2023-03-03T15:50:06.625Z,97176.00
2023-03-03T15:53:14.511Z,97176.00
2023-03-03T15:56:28.799Z,97169.00
2023-03-03T15:59:20.889Z,97169.00
2023-03-03T16:02:12.809Z,97172.00
2023-03-03T16:04:51.432Z,97170.00
2023-03-03T16:07:45.632Z,97165.00
2023-03-03T16:11:03.282Z,97167.00
2023-03-03T16:14:18.837Z,97170.00
2023-03-03T16:17:48.952Z,97179.00
2023-03-03T16:20:34.093Z,97175.00
2023-03-03T16:23:27.982Z,97178.00
2023-03-03T16:26:36.920Z,97185.00
2023-03-03T16:29:28.361Z,97189.00
2023-03-03T16:32:22.818Z,97194.00
2023-03-03T16:35:25.959Z,97184.00
2023-03-03T16:38:03.352Z,97192.00
2023-03-03T16:40:52.926Z,97199.00
2023-03-03T16:43:33.107Z,97204.00
2023-03-03T16:46:34.702Z,97208.00
2023-03-03T16:49:33.625Z,97216.00
2023-03-03T16:52:12.463Z,97221.00
2023-03-03T16:55:05.734Z,97220.00
2023-03-03T16:58:03.834Z,97224.00
2023-03-03T17:00:40.520Z,97229.00
2023-03-03T17:04:24.367Z,97224.00
2023-03-03T17:07:08.716Z,97241.00
2023-03-03T17:10:04.585Z,97252.00
2023-03-03T17:12:43.805Z,97246.00
2023-03-03T17:15:35.765Z,97252.00
2023-03-03T17:18:21.109Z,97248.00
2023-03-03T17:20:49.711Z,97249.00
2023-03-03T17:23:52.002Z,97261.00
2023-03-03T17:26:32.649Z,97252.00
2023-03-03T17:29:22.451Z,97260.00
2023-03-03T17:32:08.482Z,97259.00
2023-03-03T17:35:02.948Z,97271.00
2023-03-03T17:37:48.525Z,97263.00
2023-03-03T17:40:45.103Z,97272.00
2023-03-03T17:43:19.990Z,97273.00
2023-03-03T17:45:51.790Z,97270.00
2023-03-03T17:48:39.776Z,97278.00
2023-03-03T17:51:39.186Z,97269.00
2023-03-03T17:54:23.620Z,97267.00
2023-03-03T17:57:24.859Z,97266.00
2023-03-03T18:00:14.415Z,97279.00
2023-03-03T18:03:23.726Z,97269.00
2023-03-03T18:06:24.854Z,97275.00
2023-03-03T18:09:36.138Z,97269.00
2023-03-03T18:12:18.811Z,97277.00
2023-03-03T18:15:38.961Z,97280.00
2023-03-03T18:18:21.406Z,97277.00
2023-03-03T18:21:00.444Z,97279.00
2023-03-03T18:23:46.636Z,97283.00
2023-03-03T18:26:41.240Z,97290.00
2023-03-03T18:29:17.373Z,97293.00
2023-03-03T18:31:52.555Z,97296.00
2023-03-03T18:34:37.263Z,97299.00
2023-03-03T18:37:32.154Z,97302.00
2023-03-03T18:40:02.064Z,97301.00
2023-03-03T18:42:42.288Z,97303.00
2023-03-03T18:45:18.120Z,97292.00
2023-03-03T18:48:14.853Z,97304.00
2023-03-03T18:50:50.489Z,97297.00
2023-03-03T18:53:35.691Z,97290.00
2023-03-03T18:56:10.222Z,97293.00
2023-03-03T18:58:42.815Z,97294.00
2023-03-03T19:01:31.583Z,97296.00
2023-03-03T19:04:20.223Z,97290.00
2023-03-03T19:06:51.813Z,97295.00
2023-03-03T19:09:45.122Z,97294.00
2023-03-03T19:12:16.157Z,97295.00
2023-03-03T19:14:49.938Z,97298.00
2023-03-03T19:17:23.441Z,97294.00
2023-03-03T19:20:15.867Z,97294.00
2023-03-03T19:23:03.256Z,97305.00
2023-03-03T19:25:32.608Z,97292.00
2023-03-03T19:28:14.627Z,97298.00
2023-03-03T19:30:56.558Z,97289.00
2023-03-03T19:34:01.428Z,97302.00
2023-03-03T19:36:52.805Z,97303.00
2023-03-03T19:39:34.861Z,97299.00
2023-03-03T19:42:25.129Z,97308.00
2023-03-03T19:45:39.918Z,97301.00
2023-03-03T19:48:33.284Z,97302.00
2023-03-03T19:51:29.788Z,97299.00
2023-03-03T19:54:32.344Z,97298.00
2023-03-03T19:57:04.700Z,97302.00
2023-03-03T19:59:55.959Z,97309.00
2023-03-03T20:03:02.918Z,97308.00
2023-03-03T20:05:46.394Z,97316.00
2023-03-03T20:08:28.351Z,97308.00
2023-03-03T20:11:19.754Z,97311.00
2023-03-03T20:14:22.422Z,97309.00
2023-03-03T20:16:56.629Z,97304.00
2023-03-03T20:19:51.862Z,97309.00
2023-03-03T20:22:44.252Z,97319.00
2023-03-03T20:25:26.057Z,97313.00
2023-03-03T20:28:37.346Z,97318.00
2023-03-03T20:31:42.813Z,97310.00
2023-03-03T20:35:00.150Z,97320.00
2023-03-03T20:38:03.328Z,97323.00
2023-03-03T20:40:45.278Z,97319.00
2023-03-03T20:43:31.257Z,97325.00
2023-03-03T20:46:23.663Z,97333.00
2023-03-03T20:49:07.034Z,97332.00
2023-03-03T20:51:56.282Z,97331.00
2023-03-03T20:54:38.267Z,97329.00
2023-03-03T20:57:12.733Z,97339.00
2023-03-03T21:00:07.645Z,97329.00
2023-03-03T21:03:35.222Z,97333.00
2023-03-03T21:06:17.234Z,97325.00
2023-03-03T21:08:56.292Z,97337.00
2023-03-03T21:11:33.186Z,97336.00
2023-03-03T21:14:18.166Z,97332.00
2023-03-03T21:16:46.152Z,97334.00
2023-03-03T21:19:31.962Z,97340.00
2023-03-03T21:22:02.589Z,97336.00
2023-03-03T21:24:53.849Z,97333.00
2023-03-03T21:27:30.677Z,97334.00
2023-03-03T21:30:08.988Z,97330.00
2023-03-03T21:32:48.667Z,97337.00
2023-03-03T21:35:23.539Z,97330.00
2023-03-03T21:37:57.434Z,97323.00
2023-03-03T21:40:28.254Z,97324.00
2023-03-03T21:43:00.499Z,97324.00
2023-03-03T21:45:30.209Z,97318.00
2023-03-03T21:48:02.117Z,97329.00
2023-03-03T21:50:32.987Z,97327.00
2023-03-03T21:53:01.780Z,97330.00
2023-03-03T21:55:28.861Z,97332.00
2023-03-03T21:57:55.784Z,97320.00
2023-03-03T22:00:23.000Z,97324.00
2023-03-03T22:02:50.636Z,97323.00
2023-03-03T22:05:17.518Z,97319.00
2023-03-03T22:07:45.479Z,97319.00
2023-03-03T22:10:13.836Z,97310.00
2023-03-03T22:12:41.081Z,97311.00
2023-03-03T22:15:09.407Z,97327.00
2023-03-03T22:17:37.010Z,97325.00
2023-03-03T22:20:05.025Z,97318.00
2023-03-03T22:22:31.969Z,97320.00
2023-03-03T22:24:58.845Z,97315.00
2023-03-03T22:27:25.616Z,97312.00
2023-03-03T22:29:52.407Z,97311.00
2023-03-03T22:32:19.231Z,97315.00
2023-03-03T22:34:46.546Z,97320.00
2023-03-03T22:37:13.509Z,97325.00
2023-03-03T22:39:40.406Z,97317.00
2023-03-03T22:42:07.215Z,97317.00
2023-03-03T22:44:35.555Z,97317.00
2023-03-03T22:47:02.539Z,97305.00
2023-03-03T22:49:29.736Z,97312.00
2023-03-03T22:51:58.740Z,97321.00
2023-03-03T22:54:26.965Z,97312.00
2023-03-03T22:56:54.487Z,97315.00
2023-03-03T22:59:21.371Z,97315.00
2023-03-03T23:01:49.080Z,97317.00
2023-03-03T23:04:16.241Z,97312.00
2023-03-03T23:06:45.865Z,97327.00
2023-03-03T23:09:13.129Z,97313.00
2023-03-03T23:11:40.005Z,97309.00
2023-03-03T23:14:07.280Z,97313.00
2023-03-03T23:16:34.570Z,97307.00
2023-03-03T23:19:01.975Z,97314.00
2023-03-03T23:21:29.057Z,97310.00
2023-03-03T23:23:56.590Z,97301.00
2023-03-03T23:26:23.936Z,97300.00
2023-03-03T23:28:51.578Z,97310.00
2023-03-03T23:31:18.802Z,97304.00
2023-03-03T23:33:45.621Z,97301.00
2023-03-03T23:36:12.523Z,97301.00
2023-03-03T23:38:42.629Z,97305.00
2023-03-03T23:41:10.164Z,97298.00
2023-03-03T23:43:38.077Z,97294.00
2023-03-03T23:46:05.305Z,97297.00
2023-03-03T23:48:32.237Z,97291.00
2023-03-03T23:51:02.045Z,97294.00
2023-03-03T23:53:28.934Z,97302.00
2023-03-03T23:55:56.359Z,97287.00
2023-03-03T23:58:24.120Z,97288.00
